createdAt,value
2019-03-16T00:00:23.717Z,6.80
2019-03-16T00:02:29.020Z,6.80
2019-03-16T00:04:34.335Z,6.80
2019-03-16T00:06:39.653Z,6.80
2019-03-16T00:08:44.962Z,6.90
2019-03-16T00:10:50.279Z,6.90
2019-03-16T00:12:55.597Z,6.80
2019-03-16T00:15:00.909Z,6.80
2019-03-16T00:17:06.352Z,6.80
2019-03-16T00:19:11.690Z,6.80
2019-03-16T00:21:16.996Z,6.70
2019-03-16T00:23:22.311Z,6.80
2019-03-16T00:25:27.660Z,6.80
2019-03-16T00:27:32.972Z,6.80
2019-03-16T00:29:38.280Z,6.80
2019-03-16T00:31:43.596Z,6.80
2019-03-16T00:33:48.911Z,6.80
2019-03-16T00:35:54.219Z,6.80
2019-03-16T00:37:59.532Z,6.80
2019-03-16T00:40:07.344Z,6.80
2019-03-16T00:42:12.664Z,6.80
2019-03-16T00:44:18.060Z,6.80
2019-03-16T00:46:23.371Z,6.80
2019-03-16T00:48:28.705Z,6.80
2019-03-16T00:50:34.048Z,6.80
2019-03-16T00:52:39.358Z,6.80
2019-03-16T00:54:44.656Z,6.80
2019-03-16T00:56:49.972Z,6.90
2019-03-16T00:58:55.285Z,6.80
2019-03-16T01:01:00.588Z,6.80
2019-03-16T01:03:06.001Z,6.80
2019-03-16T01:05:11.304Z,6.70
2019-03-16T01:07:16.616Z,6.70
2019-03-16T01:09:21.949Z,6.70
2019-03-16T01:11:27.248Z,6.80
2019-03-16T01:13:32.568Z,6.80
2019-03-16T01:15:38.356Z,6.80
2019-03-16T01:17:43.667Z,6.80
2019-03-16T01:19:48.976Z,6.90
2019-03-16T01:21:54.292Z,6.90
2019-03-16T01:23:59.601Z,6.90
2019-03-16T01:26:04.941Z,6.90
2019-03-16T01:28:10.251Z,6.80
2019-03-16T01:30:16.290Z,6.80
2019-03-16T01:32:21.641Z,6.80
2019-03-16T01:34:26.958Z,6.70
2019-03-16T01:36:32.260Z,6.70
2019-03-16T01:38:37.585Z,6.70
2019-03-16T01:40:42.901Z,6.80
2019-03-16T01:42:48.204Z,6.80
2019-03-16T01:44:53.515Z,6.80
2019-03-16T01:46:58.892Z,6.80
2019-03-16T01:49:04.192Z,6.70
2019-03-16T01:51:09.504Z,6.70
2019-03-16T01:53:14.816Z,6.70
2019-03-16T01:55:20.151Z,6.70
2019-03-16T01:57:25.496Z,6.60
2019-03-16T01:59:30.810Z,6.60
2019-03-16T02:01:36.114Z,6.50
2019-03-16T02:03:41.428Z,6.50
2019-03-16T02:05:46.738Z,6.50
2019-03-16T02:07:53.117Z,6.40
2019-03-16T02:09:59.407Z,6.40
2019-03-16T02:12:04.716Z,6.30
2019-03-16T02:14:10.049Z,6.20
2019-03-16T02:16:15.330Z,6.20
2019-03-16T02:18:20.631Z,6.20
2019-03-16T02:20:25.937Z,6.30
2019-03-16T02:22:31.252Z,6.30
2019-03-16T02:24:36.559Z,6.40
2019-03-16T02:26:41.859Z,6.50
2019-03-16T02:28:47.173Z,6.40
2019-03-16T02:30:52.485Z,6.40
2019-03-16T02:33:11.528Z,6.40
2019-03-16T02:35:06.672Z,6.40
2019-03-16T02:37:11.986Z,6.40
2019-03-16T02:39:17.309Z,6.30
2019-03-16T02:41:22.642Z,6.20
2019-03-16T02:43:27.945Z,6.00
2019-03-16T02:45:33.258Z,5.90
2019-03-16T02:47:38.576Z,6.00
2019-03-16T02:49:43.872Z,5.90
2019-03-16T02:51:49.172Z,6.00
2019-03-16T02:53:54.508Z,6.10
2019-03-16T02:55:59.814Z,6.20
2019-03-16T02:58:05.117Z,6.20
2019-03-16T03:00:11.965Z,6.30
2019-03-16T03:02:18.306Z,6.40
2019-03-16T03:04:23.645Z,6.40
2019-03-16T03:06:28.933Z,6.30
2019-03-16T03:08:34.241Z,6.40
2019-03-16T03:10:39.553Z,6.40
2019-03-16T03:12:44.861Z,6.30
2019-03-16T03:14:50.168Z,6.30
2019-03-16T03:16:55.478Z,6.40
2019-03-16T03:19:00.804Z,6.30
2019-03-16T03:21:06.113Z,6.40
2019-03-16T03:23:11.427Z,6.40
2019-03-16T03:25:16.766Z,6.30
2019-03-16T03:27:22.068Z,6.30
2019-03-16T03:29:27.378Z,6.30
2019-03-16T03:31:32.717Z,6.30
2019-03-16T03:33:58.633Z,6.30
2019-03-16T03:35:44.930Z,6.30
2019-03-16T03:37:50.263Z,6.30
2019-03-16T03:39:55.623Z,6.30
2019-03-16T03:42:00.993Z,6.40
2019-03-16T03:44:06.305Z,6.50
2019-03-16T03:46:11.621Z,6.40
2019-03-16T03:48:16.912Z,6.40
2019-03-16T03:50:22.250Z,6.40
2019-03-16T03:52:27.549Z,6.30
2019-03-16T03:54:32.849Z,6.30
2019-03-16T03:56:38.161Z,6.30
2019-03-16T03:58:43.453Z,6.30
2019-03-16T04:00:48.769Z,6.30
2019-03-16T04:02:54.085Z,6.30
2019-03-16T04:04:59.391Z,6.20
2019-03-16T04:07:04.697Z,6.20
2019-03-16T04:09:10.009Z,6.20
2019-03-16T04:11:15.313Z,6.20
2019-03-16T04:13:20.613Z,6.20
2019-03-16T04:15:26.054Z,6.20
2019-03-16T04:17:31.336Z,6.20
2019-03-16T04:19:36.641Z,6.10
2019-03-16T04:21:41.981Z,6.10
2019-03-16T04:23:47.288Z,6.10
2019-03-16T04:25:52.593Z,6.10
2019-03-16T04:27:57.903Z,6.10
2019-03-16T04:30:03.689Z,6.10
2019-03-16T04:32:08.988Z,6.00
2019-03-16T04:34:27.999Z,6.10
2019-03-16T04:36:21.237Z,6.00
2019-03-16T04:38:26.540Z,6.00
2019-03-16T04:40:31.853Z,6.10
2019-03-16T04:42:37.155Z,6.00
2019-03-16T04:44:42.460Z,6.10
2019-03-16T04:46:47.796Z,6.10
2019-03-16T04:48:53.163Z,6.10
2019-03-16T04:50:58.472Z,6.00
2019-03-16T04:53:03.788Z,6.00
2019-03-16T04:55:09.579Z,6.00
2019-03-16T04:57:14.889Z,6.00
2019-03-16T04:59:20.290Z,6.00
2019-03-16T05:01:25.540Z,5.90
2019-03-16T05:03:30.864Z,5.90
2019-03-16T05:05:36.213Z,5.90
2019-03-16T05:07:41.515Z,5.90
2019-03-16T05:09:46.791Z,5.90
2019-03-16T05:11:52.144Z,5.90
2019-03-16T05:13:57.453Z,5.80
2019-03-16T05:16:02.772Z,5.90
2019-03-16T05:18:08.096Z,6.00
2019-03-16T05:20:13.408Z,5.90
2019-03-16T05:22:18.708Z,5.90
2019-03-16T05:24:24.048Z,5.80
2019-03-16T05:26:29.355Z,5.80
2019-03-16T05:28:34.685Z,5.80
2019-03-16T05:30:40.023Z,5.80
2019-03-16T05:32:45.328Z,5.80
2019-03-16T05:34:56.345Z,5.80
2019-03-16T05:36:57.580Z,5.90
2019-03-16T05:39:03.056Z,5.80
2019-03-16T05:41:08.372Z,5.90
2019-03-16T05:43:13.692Z,5.80
2019-03-16T05:45:19.008Z,5.80
2019-03-16T05:47:24.311Z,5.80
2019-03-16T05:49:29.631Z,5.80
2019-03-16T05:51:34.949Z,5.80
2019-03-16T05:53:40.259Z,5.80
2019-03-16T05:55:45.576Z,5.80
2019-03-16T05:57:50.884Z,5.80
2019-03-16T05:59:56.196Z,5.80
2019-03-16T06:02:01.525Z,5.80
2019-03-16T06:04:06.845Z,5.80
2019-03-16T06:06:12.240Z,5.80
2019-03-16T06:08:17.547Z,5.80
2019-03-16T06:10:22.866Z,5.90
2019-03-16T06:12:28.167Z,5.90
2019-03-16T06:14:33.507Z,5.90
2019-03-16T06:16:38.815Z,6.10
2019-03-16T06:18:44.131Z,6.10
2019-03-16T06:20:49.555Z,6.10
2019-03-16T06:22:54.859Z,6.10
2019-03-16T06:25:00.166Z,6.10
2019-03-16T06:27:05.691Z,6.20
2019-03-16T06:29:11.000Z,6.10
2019-03-16T06:31:16.307Z,6.10
2019-03-16T06:33:21.650Z,6.10
2019-03-16T06:35:29.445Z,6.20
2019-03-16T06:37:33.893Z,6.10
2019-03-16T06:39:39.232Z,6.10
2019-03-16T06:41:44.547Z,6.10
2019-03-16T06:43:49.865Z,6.10
2019-03-16T06:45:55.209Z,6.10
2019-03-16T06:48:00.520Z,6.10
2019-03-16T06:50:09.284Z,6.20
2019-03-16T06:52:14.604Z,6.10
2019-03-16T06:54:19.914Z,6.20
2019-03-16T06:56:25.219Z,6.20
2019-03-16T06:58:30.538Z,6.20
2019-03-16T07:00:35.844Z,6.30
2019-03-16T07:02:41.152Z,6.20
2019-03-16T07:04:47.437Z,6.40
2019-03-16T07:06:52.758Z,6.50
2019-03-16T07:08:58.077Z,6.70
2019-03-16T07:11:03.399Z,6.70
2019-03-16T07:13:08.712Z,6.60
2019-03-16T07:15:16.031Z,6.90
2019-03-16T07:17:21.431Z,7.20
2019-03-16T07:19:26.732Z,7.40
2019-03-16T07:21:32.036Z,7.40
2019-03-16T07:23:37.389Z,7.40
2019-03-16T07:25:42.696Z,7.30
2019-03-16T07:27:49.091Z,7.30
2019-03-16T07:29:54.416Z,7.50
2019-03-16T07:31:59.736Z,8.00
2019-03-16T07:34:05.413Z,8.50
2019-03-16T07:36:10.753Z,8.40
2019-03-16T07:38:16.048Z,8.60
2019-03-16T07:40:21.360Z,8.60
2019-03-16T07:42:26.793Z,8.20
2019-03-16T07:44:32.097Z,7.80
2019-03-16T07:46:37.449Z,7.90
2019-03-16T07:48:42.763Z,8.30
2019-03-16T07:50:51.354Z,8.60
2019-03-16T07:52:58.284Z,9.00
2019-03-16T07:55:04.166Z,9.30
2019-03-16T07:57:10.472Z,9.40
2019-03-16T07:59:15.792Z,9.40
2019-03-16T08:01:21.104Z,8.90
2019-03-16T08:03:26.424Z,9.30
2019-03-16T08:05:31.744Z,9.30
2019-03-16T08:07:37.053Z,9.00
2019-03-16T08:09:42.364Z,8.90
2019-03-16T08:11:47.693Z,8.80
2019-03-16T08:13:54.076Z,8.70
2019-03-16T08:15:59.403Z,8.70
2019-03-16T08:18:07.682Z,8.30
2019-03-16T08:20:11.644Z,7.90
2019-03-16T08:22:16.959Z,7.60
2019-03-16T08:24:22.276Z,7.40
2019-03-16T08:26:27.583Z,7.50
2019-03-16T08:28:32.892Z,7.50
2019-03-16T08:30:38.232Z,7.40
2019-03-16T08:32:43.604Z,7.40
2019-03-16T08:34:48.916Z,7.60
2019-03-16T08:36:54.236Z,8.10
2019-03-16T08:38:59.553Z,8.40
2019-03-16T08:41:05.016Z,8.50
2019-03-16T08:43:10.344Z,8.40
2019-03-16T08:45:15.657Z,8.10
2019-03-16T08:47:20.973Z,8.10
2019-03-16T08:49:26.293Z,8.00
2019-03-16T08:51:31.604Z,7.80
2019-03-16T08:53:36.915Z,7.80
2019-03-16T08:55:42.231Z,7.90
2019-03-16T08:57:47.557Z,7.90
2019-03-16T08:59:52.863Z,8.00
2019-03-16T09:01:58.178Z,7.80
2019-03-16T09:04:03.492Z,7.80
2019-03-16T09:06:08.817Z,7.70
2019-03-16T09:08:14.180Z,7.80
2019-03-16T09:10:19.493Z,7.80
2019-03-16T09:12:24.801Z,7.80
2019-03-16T09:14:30.121Z,7.70
2019-03-16T09:16:35.432Z,7.60
2019-03-16T09:18:40.750Z,7.60
2019-03-16T09:20:46.180Z,7.60
2019-03-16T09:22:51.509Z,7.70
2019-03-16T09:24:56.824Z,7.70
2019-03-16T09:27:02.145Z,7.80
2019-03-16T09:29:14.818Z,7.70
2019-03-16T09:31:14.417Z,7.70
2019-03-16T09:33:19.788Z,7.70
2019-03-16T09:35:25.047Z,7.80
2019-03-16T09:37:30.360Z,7.90
2019-03-16T09:39:35.681Z,7.90
2019-03-16T09:41:41.006Z,8.00
2019-03-16T09:43:46.326Z,8.10
2019-03-16T09:45:51.629Z,8.10
2019-03-16T09:47:56.931Z,8.10
2019-03-16T09:50:02.255Z,8.20
2019-03-16T09:52:07.560Z,8.40
2019-03-16T09:54:12.879Z,8.50
2019-03-16T09:56:18.224Z,8.50
2019-03-16T09:58:31.010Z,8.50
2019-03-16T10:00:30.471Z,8.30
2019-03-16T10:02:35.807Z,8.10
2019-03-16T10:04:41.141Z,8.10
2019-03-16T10:06:46.464Z,8.10
2019-03-16T10:08:51.813Z,8.20
2019-03-16T10:10:57.127Z,8.10
2019-03-16T10:13:02.452Z,8.20
2019-03-16T10:15:12.027Z,8.20
2019-03-16T10:17:17.348Z,8.10
2019-03-16T10:19:22.664Z,8.10
2019-03-16T10:21:28.007Z,8.10
2019-03-16T10:23:33.323Z,8.20
2019-03-16T10:25:38.636Z,8.20
2019-03-16T10:27:43.965Z,8.30
2019-03-16T10:29:49.278Z,8.40
2019-03-16T10:31:54.606Z,8.50
2019-03-16T10:33:59.951Z,8.40
2019-03-16T10:36:07.092Z,8.40
2019-03-16T10:38:12.400Z,8.60
2019-03-16T10:40:17.741Z,8.80
2019-03-16T10:42:23.060Z,8.80
2019-03-16T10:44:28.376Z,8.90
2019-03-16T10:46:33.696Z,8.80
2019-03-16T10:48:39.005Z,8.90
2019-03-16T10:50:44.311Z,8.90
2019-03-16T10:52:49.701Z,8.80
2019-03-16T10:54:55.086Z,8.80
2019-03-16T10:57:00.487Z,8.90
2019-03-16T10:59:05.840Z,8.90
2019-03-16T11:01:11.164Z,9.00
2019-03-16T11:03:16.476Z,9.10
2019-03-16T11:05:21.812Z,9.20
2019-03-16T11:07:27.180Z,9.10
2019-03-16T11:09:32.497Z,9.30
2019-03-16T11:11:37.840Z,9.20
2019-03-16T11:13:43.146Z,9.30
2019-03-16T11:15:49.429Z,9.40
2019-03-16T11:17:54.768Z,9.40
2019-03-16T11:20:00.135Z,9.60
2019-03-16T11:22:06.389Z,9.90
2019-03-16T11:24:12.683Z,9.90
2019-03-16T11:26:17.994Z,9.70
2019-03-16T11:28:23.299Z,9.80
2019-03-16T11:30:28.624Z,9.70
2019-03-16T11:32:33.939Z,9.60
2019-03-16T11:34:39.251Z,9.80
2019-03-16T11:36:44.571Z,9.80
2019-03-16T11:38:49.891Z,10.00
2019-03-16T11:40:55.216Z,10.10
2019-03-16T11:43:00.545Z,10.10
2019-03-16T11:45:08.301Z,10.00
2019-03-16T11:47:13.626Z,10.10
2019-03-16T11:49:18.951Z,10.10
2019-03-16T11:51:24.274Z,10.10
2019-03-16T11:53:29.595Z,10.00
2019-03-16T11:55:34.948Z,10.00
2019-03-16T11:57:40.269Z,9.90
2019-03-16T11:59:45.586Z,9.90
2019-03-16T12:01:50.912Z,9.80
2019-03-16T12:03:56.231Z,9.90
2019-03-16T12:06:01.550Z,10.00
2019-03-16T12:08:06.877Z,10.00
2019-03-16T12:10:13.248Z,10.00
2019-03-16T12:12:18.642Z,10.10
2019-03-16T12:14:23.986Z,10.00
2019-03-16T12:16:29.312Z,10.10
2019-03-16T12:18:34.623Z,10.10
2019-03-16T12:20:39.976Z,10.20
2019-03-16T12:22:45.302Z,10.20
2019-03-16T12:25:04.331Z,10.10
2019-03-16T12:27:09.738Z,10.10
2019-03-16T12:29:15.058Z,10.20
2019-03-16T12:31:20.379Z,10.10
2019-03-16T12:33:25.706Z,10.10
2019-03-16T12:35:31.020Z,10.00
2019-03-16T12:37:36.332Z,10.20
2019-03-16T12:39:41.666Z,10.20
2019-03-16T12:41:46.975Z,10.10
2019-03-16T12:43:52.288Z,10.00
2019-03-16T12:45:57.619Z,10.00
2019-03-16T12:48:02.943Z,10.00
2019-03-16T12:50:13.549Z,10.00
2019-03-16T12:52:18.868Z,10.00
2019-03-16T12:54:24.213Z,9.90
2019-03-16T12:56:29.517Z,9.80
2019-03-16T12:58:34.843Z,10.00
2019-03-16T13:00:47.841Z,10.00
2019-03-16T13:02:53.197Z,9.90
2019-03-16T13:05:17.969Z,9.90
2019-03-16T13:07:22.607Z,9.80
2019-03-16T13:09:28.791Z,10.00
2019-03-16T13:11:34.141Z,9.90
2019-03-16T13:13:39.528Z,9.80
2019-03-16T13:15:44.848Z,9.80
2019-03-16T13:17:50.261Z,9.80
2019-03-16T13:19:55.644Z,9.70
2019-03-16T13:22:03.512Z,9.60
2019-03-16T13:24:08.876Z,9.70
2019-03-16T13:26:15.853Z,9.70
2019-03-16T13:28:21.191Z,9.70
2019-03-16T13:30:26.546Z,9.60
2019-03-16T13:32:33.548Z,9.70
2019-03-16T13:34:38.869Z,9.80
2019-03-16T13:36:44.184Z,9.80
2019-03-16T13:38:49.511Z,9.90
2019-03-16T13:40:54.899Z,9.80
2019-03-16T13:43:02.928Z,9.70
2019-03-16T13:45:09.194Z,9.80
2019-03-16T13:47:14.590Z,9.90
2019-03-16T13:49:19.980Z,9.90
2019-03-16T13:51:25.334Z,10.00
2019-03-16T13:53:32.761Z,10.10
2019-03-16T13:55:38.384Z,10.30
2019-03-16T13:57:43.969Z,10.40
2019-03-16T13:59:52.641Z,10.40
2019-03-16T14:01:57.935Z,10.40
2019-03-16T14:04:04.443Z,10.40
2019-03-16T14:06:09.769Z,10.50
2019-03-16T14:08:15.093Z,10.50
2019-03-16T14:10:26.447Z,10.40
2019-03-16T14:12:31.768Z,10.40
2019-03-16T14:14:37.096Z,10.40
2019-03-16T14:16:42.450Z,10.30
2019-03-16T14:18:47.769Z,10.30
2019-03-16T14:20:53.089Z,10.20
2019-03-16T14:22:58.493Z,10.10
2019-03-16T14:25:07.483Z,10.10
2019-03-16T14:27:12.510Z,10.10
2019-03-16T14:29:18.338Z,10.20
2019-03-16T14:31:23.757Z,10.20
2019-03-16T14:33:29.064Z,10.20
2019-03-16T14:35:34.695Z,10.20
2019-03-16T14:37:40.018Z,10.20
2019-03-16T14:39:45.346Z,10.10
2019-03-16T14:41:50.673Z,9.90
2019-03-16T14:43:55.992Z,10.00
2019-03-16T14:46:01.316Z,10.00
2019-03-16T14:48:06.664Z,10.00
2019-03-16T14:50:22.983Z,10.00
2019-03-16T14:52:28.312Z,9.90
2019-03-16T14:54:35.295Z,9.90
2019-03-16T14:56:40.620Z,9.80
2019-03-16T14:58:48.975Z,9.80
2019-03-16T15:00:54.335Z,9.70
2019-03-16T15:02:59.659Z,9.70
2019-03-16T15:05:06.336Z,9.60
2019-03-16T15:07:11.662Z,9.50
2019-03-16T15:09:16.972Z,9.50
2019-03-16T15:11:22.292Z,9.60
2019-03-16T15:13:27.641Z,9.60
2019-03-16T15:15:32.962Z,9.50
2019-03-16T15:17:38.344Z,9.50
2019-03-16T15:19:43.755Z,9.40
2019-03-16T15:21:49.072Z,9.40
2019-03-16T15:23:54.526Z,9.30
2019-03-16T15:25:59.900Z,9.30
2019-03-16T15:28:05.229Z,9.20
2019-03-16T15:30:50.060Z,9.20
2019-03-16T15:32:46.725Z,9.10
2019-03-16T15:34:52.068Z,9.00
2019-03-16T15:37:03.835Z,9.00
2019-03-16T15:39:10.396Z,9.00
2019-03-16T15:41:18.971Z,9.00
2019-03-16T15:43:24.318Z,8.90
2019-03-16T15:45:32.244Z,8.90
2019-03-16T15:47:37.568Z,8.90
2019-03-16T15:49:42.887Z,8.90
2019-03-16T15:51:48.212Z,8.70
2019-03-16T15:53:53.531Z,8.70
2019-03-16T15:56:00.482Z,8.70
2019-03-16T15:58:08.315Z,8.70
2019-03-16T16:00:18.921Z,8.70
2019-03-16T16:02:24.342Z,8.70
2019-03-16T16:04:37.523Z,8.60
2019-03-16T16:06:42.934Z,8.70
2019-03-16T16:08:48.290Z,8.60
2019-03-16T16:11:00.873Z,8.50
2019-03-16T16:13:03.497Z,8.60
2019-03-16T16:15:10.756Z,8.50
2019-03-16T16:17:17.162Z,8.50
2019-03-16T16:19:35.001Z,8.50
2019-03-16T16:21:32.653Z,8.50
2019-03-16T16:23:38.022Z,8.50
2019-03-16T16:25:43.377Z,8.50
2019-03-16T16:27:48.886Z,8.40
2019-03-16T16:29:54.260Z,8.40
2019-03-16T16:31:59.596Z,8.40
2019-03-16T16:34:04.954Z,8.40
2019-03-16T16:36:10.307Z,8.40
2019-03-16T16:38:15.652Z,8.30
2019-03-16T16:40:21.273Z,8.30
2019-03-16T16:42:30.575Z,8.30
2019-03-16T16:44:36.969Z,8.20
2019-03-16T16:46:42.291Z,8.20
2019-03-16T16:48:47.640Z,8.30
2019-03-16T16:50:52.969Z,8.30
2019-03-16T16:52:58.294Z,8.20
2019-03-16T16:55:03.696Z,8.10
2019-03-16T16:57:10.074Z,8.20
2019-03-16T16:59:15.396Z,8.20
2019-03-16T17:01:29.402Z,8.20
2019-03-16T17:03:27.657Z,8.20
2019-03-16T17:05:32.980Z,8.10
2019-03-16T17:07:38.304Z,8.00
2019-03-16T17:09:43.620Z,8.10
2019-03-16T17:11:49.809Z,8.00
2019-03-16T17:13:55.159Z,7.90
2019-03-16T17:16:00.488Z,7.90
2019-03-16T17:18:05.799Z,7.80
2019-03-16T17:20:13.065Z,7.90
2019-03-16T17:22:18.389Z,7.80
2019-03-16T17:24:23.744Z,7.70
2019-03-16T17:26:29.075Z,7.70
2019-03-16T17:28:34.408Z,7.70
2019-03-16T17:30:39.695Z,7.70
2019-03-16T17:32:45.016Z,7.70
2019-03-16T17:34:50.339Z,7.70
2019-03-16T17:36:55.661Z,7.60
2019-03-16T17:39:00.984Z,7.50
2019-03-16T17:41:07.767Z,7.60
2019-03-16T17:43:13.093Z,7.50
2019-03-16T17:45:18.488Z,7.50
2019-03-16T17:47:23.809Z,7.50
2019-03-16T17:49:29.200Z,7.40
2019-03-16T17:51:34.557Z,7.40
2019-03-16T17:53:39.860Z,7.30
2019-03-16T17:55:45.176Z,7.20
2019-03-16T17:57:50.496Z,7.10
2019-03-16T17:59:55.824Z,7.20
2019-03-16T18:02:01.258Z,7.10
2019-03-16T18:04:06.609Z,7.10
2019-03-16T18:06:11.963Z,7.00
2019-03-16T18:08:17.305Z,7.00
2019-03-16T18:10:22.644Z,7.00
2019-03-16T18:12:27.979Z,7.00
2019-03-16T18:14:33.314Z,7.00
2019-03-16T18:16:38.660Z,6.90
2019-03-16T18:18:43.988Z,6.90
2019-03-16T18:20:49.295Z,6.80
2019-03-16T18:22:54.645Z,6.80
2019-03-16T18:25:01.048Z,6.80
2019-03-16T18:27:06.380Z,6.80
2019-03-16T18:29:11.717Z,6.80
2019-03-16T18:31:17.027Z,6.80
2019-03-16T18:33:22.353Z,6.70
2019-03-16T18:35:27.706Z,6.70
2019-03-16T18:37:33.049Z,6.70
2019-03-16T18:39:38.392Z,6.70
2019-03-16T18:41:43.737Z,6.60
2019-03-16T18:43:49.061Z,6.60
2019-03-16T18:45:54.412Z,6.50
2019-03-16T18:47:59.785Z,6.50
2019-03-16T18:50:06.652Z,6.50
2019-03-16T18:52:12.017Z,6.40
2019-03-16T18:54:17.393Z,6.40
2019-03-16T18:56:22.747Z,6.50
2019-03-16T18:58:37.245Z,6.50
2019-03-16T19:00:35.044Z,6.50
2019-03-16T19:02:40.365Z,6.60
2019-03-16T19:04:45.676Z,6.60
2019-03-16T19:06:51.023Z,6.60
2019-03-16T19:08:56.375Z,6.60
2019-03-16T19:11:01.709Z,6.60
2019-03-16T19:13:07.062Z,6.60
2019-03-16T19:15:17.511Z,6.60
2019-03-16T19:17:22.916Z,6.50
2019-03-16T19:19:28.280Z,6.50
2019-03-16T19:21:33.643Z,6.50
2019-03-16T19:23:38.998Z,6.40
2019-03-16T19:25:44.331Z,6.50
2019-03-16T19:27:49.668Z,6.50
2019-03-16T19:29:54.983Z,6.50
2019-03-16T19:32:00.387Z,6.50
2019-03-16T19:34:05.728Z,6.50
2019-03-16T19:36:11.085Z,6.50
2019-03-16T19:38:17.785Z,6.60
2019-03-16T19:40:24.180Z,6.50
2019-03-16T19:42:29.513Z,6.40
2019-03-16T19:44:34.862Z,6.50
2019-03-16T19:46:40.189Z,6.50
2019-03-16T19:48:45.513Z,6.50
2019-03-16T19:50:50.868Z,6.50
2019-03-16T19:52:56.180Z,6.50
2019-03-16T19:55:01.509Z,6.50
2019-03-16T19:57:15.797Z,6.50
2019-03-16T19:59:13.848Z,6.60
2019-03-16T20:01:19.185Z,6.50
2019-03-16T20:03:24.533Z,6.60
2019-03-16T20:05:29.921Z,6.60
2019-03-16T20:07:35.249Z,6.60
2019-03-16T20:09:40.564Z,6.60
2019-03-16T20:11:47.562Z,6.60
2019-03-16T20:13:52.885Z,6.60
2019-03-16T20:15:58.247Z,6.60
2019-03-16T20:18:06.380Z,6.60
2019-03-16T20:20:16.572Z,6.70
2019-03-16T20:22:21.982Z,6.70
2019-03-16T20:24:29.401Z,6.70
2019-03-16T20:26:34.748Z,6.80
2019-03-16T20:28:40.096Z,6.80
2019-03-16T20:30:45.708Z,6.70
2019-03-16T20:33:03.178Z,6.70
2019-03-16T20:34:58.060Z,6.80
2019-03-16T20:37:03.389Z,6.80
2019-03-16T20:39:08.704Z,6.80
2019-03-16T20:41:14.032Z,6.80
2019-03-16T20:43:19.341Z,6.90
2019-03-16T20:45:24.694Z,6.80
2019-03-16T20:47:31.287Z,6.90
2019-03-16T20:49:36.692Z,6.90
2019-03-16T20:51:42.026Z,6.90
2019-03-16T20:53:47.361Z,6.80
2019-03-16T20:55:52.681Z,6.90
2019-03-16T20:57:58.005Z,6.90
2019-03-16T21:00:05.005Z,6.90
2019-03-16T21:02:10.465Z,6.90
2019-03-16T21:04:16.744Z,7.00
2019-03-16T21:06:22.088Z,7.00
2019-03-16T21:08:27.419Z,7.00
2019-03-16T21:10:32.727Z,7.00
2019-03-16T21:12:38.052Z,7.00
2019-03-16T21:14:43.374Z,7.00
2019-03-16T21:16:48.684Z,7.00
2019-03-16T21:18:54.016Z,7.00
2019-03-16T21:20:59.328Z,7.00
2019-03-16T21:23:04.640Z,7.00
2019-03-16T21:25:11.629Z,7.00
2019-03-16T21:27:16.939Z,7.00
2019-03-16T21:29:22.338Z,7.00
2019-03-16T21:31:27.663Z,7.10
2019-03-16T21:33:33.047Z,7.00
2019-03-16T21:35:38.371Z,7.10
2019-03-16T21:37:43.688Z,7.10
2019-03-16T21:39:49.002Z,7.20
2019-03-16T21:41:54.435Z,7.20
2019-03-16T21:43:59.743Z,7.20
2019-03-16T21:46:12.539Z,7.20
2019-03-16T21:48:17.896Z,7.20
2019-03-16T21:50:23.217Z,7.20
2019-03-16T21:52:28.527Z,7.20
2019-03-16T21:54:33.880Z,7.20
2019-03-16T21:56:58.647Z,7.20
2019-03-16T21:59:03.263Z,7.20
2019-03-16T22:01:16.252Z,7.20
2019-03-16T22:03:21.635Z,7.20
2019-03-16T22:05:26.948Z,7.30
2019-03-16T22:07:37.789Z,7.30
2019-03-16T22:09:43.421Z,7.30
2019-03-16T22:12:03.092Z,7.30
2019-03-16T22:14:09.402Z,7.30
2019-03-16T22:16:14.724Z,7.30
2019-03-16T22:18:20.041Z,7.30
2019-03-16T22:20:25.400Z,7.30
2019-03-16T22:22:30.780Z,7.40
2019-03-16T22:24:36.923Z,7.40
2019-03-16T22:26:42.329Z,7.40
2019-03-16T22:28:56.147Z,7.40
2019-03-16T22:31:04.276Z,7.40
2019-03-16T22:33:10.160Z,7.40
2019-03-16T22:35:15.488Z,7.40
2019-03-16T22:37:22.630Z,7.40
2019-03-16T22:39:27.952Z,7.40
2019-03-16T22:41:34.904Z,7.40
2019-03-16T22:44:05.160Z,7.40
2019-03-16T22:46:12.130Z,7.50
2019-03-16T22:48:25.704Z,7.40
2019-03-16T22:50:30.990Z,7.40
2019-03-16T22:52:36.301Z,7.40
2019-03-16T22:54:41.651Z,7.40
2019-03-16T22:59:15.744Z,7.50
2019-03-16T23:01:42.100Z,7.40
2019-03-16T23:03:47.419Z,7.40
2019-03-16T23:05:52.792Z,7.50
2019-03-16T23:07:59.732Z,7.50
2019-03-16T23:10:12.073Z,7.40
2019-03-16T23:12:15.487Z,7.40
2019-03-16T23:14:21.784Z,7.40
2019-03-16T23:16:43.941Z,7.40
2019-03-16T23:18:49.299Z,7.50
2019-03-16T23:20:54.613Z,7.50
2019-03-16T23:22:59.933Z,7.50
2019-03-16T23:25:07.650Z,7.50
2019-03-16T23:27:12.976Z,7.50
2019-03-16T23:29:18.492Z,7.50
2019-03-16T23:31:23.872Z,7.50
2019-03-16T23:33:29.571Z,7.50
2019-03-16T23:35:54.417Z,7.60
2019-03-16T23:38:00.813Z,7.60
2019-03-16T23:40:12.866Z,7.60
2019-03-16T23:42:18.212Z,7.60
2019-03-16T23:44:23.520Z,7.60
2019-03-16T23:46:28.849Z,7.60
2019-03-16T23:48:34.177Z,7.60
2019-03-16T23:50:39.500Z,7.70
2019-03-16T23:52:44.821Z,7.60
2019-03-16T23:54:50.161Z,7.70
2019-03-16T23:56:55.947Z,7.70
2019-03-16T23:59:01.637Z,7.70
